Padre Island — WDB4436 — position and weather

sailwx.info

Track history (hours):
 
Tides and Currents Weather Stations Pressure Air Temp Water Temp Dewpoint Dewpoint Depression Visibility Wind Speed Wind Dir Waves Ship Positions

Padre Island

Owner: Great Lakes Dredge & Dock Company, Oak Brook, IL. More information available from US FCC via Universal Licensing System and Coast Guard Vessel Documentation Center.

Last reported at 2015-May-29 21:33 UTC. Time now 2015-May-29 22:30 UTC.
Position N 39°38' W 074°10'.

Length 86 m; draft 19.6 m.

Type: Dredging. MMSI: 367525000.

Date/timePositionNaut miles runAvg speedWind from/ knotsBaromVisibWave heightAir tempDewpointWater temp
2015-May-29 21:33N 39°38' W 074°10'2 2.5
2015-May-29 20:33N 39°39' W 074°07'3 3.1
2015-May-29 19:33N 39°40' W 074°04'6 5.4
2015-May-29 18:32N 39°38' W 074°10'2 2.4
2015-May-29 17:33N 39°39' W 074°08'4 3.9
2015-May-29 16:33N 39°41' W 074°03'6 6.2
2015-May-29 15:33N 39°38' W 074°10'0 0.0
2015-May-29 14:33N 39°38' W 074°10'6 5.9
2015-May-29 13:33N 39°41' W 074°03'1 0.5
2015-May-29 12:33N 39°41' W 074°03'6 6.4
2015-May-29 11:33N 39°38' W 074°10'0 0.0
2015-May-29 10:33N 39°38' W 074°10'0 0.2
2015-May-29 09:33N 39°38' W 074°10'5 5.2
2015-May-29 08:33N 39°40' W 074°04'3 2.8
2015-May-29 07:33N 39°39' W 074°08'2 2.4
2015-May-29 06:32N 39°38' W 074°10'1 0.6
2015-May-29 05:33N 39°38' W 074°10'5 5.1
2015-May-29 04:33N 39°41' W 074°04'5 4.9
2015-May-29 03:33N 39°38' W 074°10'1 0.7
2015-May-29 02:32N 39°38' W 074°10'6 5.7
2015-May-29 01:32N 39°41' W 074°04'1 0.6
2015-May-29 00:33N 39°40' W 074°04'5 5.1
2015-May-28 23:33N 39°38' W 074°10'0 0.0
2015-May-28 22:33N 39°38' W 074°10'6 5.7
2015-May-28 21:33N 39°41' W 074°04'3 3.3
2015-May-28 20:33N 39°39' W 074°08'2 2.4
2015-May-28 19:33N 39°38' W 074°10'5 5.5
2015-May-28 18:33N 39°40' W 074°04'2 1.6
2015-May-28 17:33N 39°40' W 074°06'4 3.9
2015-May-28 16:33N 39°38' W 074°10'6 5.7
2015-May-28 15:33N 39°40' W 074°04'1 0.6
2015-May-28 14:33N 39°41' W 074°03'6 6.1
2015-May-28 13:32N 39°38' W 074°10'0 0.0
2015-May-28 12:33N 39°38' W 074°10'2 1.5
2015-May-28 11:33N 39°38' W 074°08'4 4.3
2015-May-28 10:33N 39°40' W 074°04'0 0.4
2015-May-28 09:33N 39°41' W 074°04'6 5.6
2015-May-28 08:33N 39°38' W 074°10'4 3.6
2015-May-28 07:33N 39°39' W 074°06'2 2.5
2015-May-28 06:33N 39°41' W 074°03'6 6.0
2015-May-28 05:33N 39°38' W 074°10'2 1.7
2015-May-28 04:33N 39°39' W 074°08'4 4.0
2015-May-28 03:33N 39°40' W 074°04'6 5.6
2015-May-28 02:33N 39°38' W 074°10'0 0.0
2015-May-28 01:32N 39°38' W 074°10'6 6.2
2015-May-28 00:33N 39°41' W 074°03'1 1.0
2015-May-27 23:33N 39°40' W 074°04'5 5.4
2015-May-27 22:33N 39°38' W 074°10'2 2.0
2015-May-27 21:33N 39°39' W 074°08'4 3.7
2015-May-27 20:33N 39°41' W 074°04'0 0.2
2015-May-27 19:33N 39°41' W 074°04'0 0.2
2015-May-27 18:33N 39°41' W 074°04'0 0.3
2015-May-27 17:33N 39°41' W 074°03'1 0.9
2015-May-27 16:33N 39°40' W 074°04'2 1.5
2015-May-27 15:33N 39°40' W 074°06'4 3.9
2015-May-27 14:33N 39°38' W 074°10'3 3.0
2015-May-27 13:33N 39°39' W 074°07'2 1.7
2015-May-27 12:33N 39°40' W 074°05'5 4.7
2015-May-27 11:33N 39°38' W 074°10'0 0.0
2015-May-27 10:33N 39°38' W 074°10'5 5.4
2015-May-27 09:33N 39°40' W 074°04'1 1.2
2015-May-27 08:33N 39°40' W 074°05'4 4.2
2015-May-27 07:33N 39°38' W 074°10'3 2.6
2015-May-27 06:33N 39°39' W 074°07'3 3.3
2015-May-27 05:33N 39°41' W 074°03'6 5.9
2015-May-27 04:33N 39°38' W 074°10'1 0.7
2015-May-27 03:33N 39°38' W 074°09'4 4.1
2015-May-27 02:33N 39°40' W 074°05'5 4.8
2015-May-27 01:33N 39°38' W 074°10'0 0.0
2015-May-27 00:33N 39°38' W 074°10'5 5.2
2015-May-26 23:33N 39°40' W 074°04'4 3.8
2015-May-26 22:33N 39°38' W 074°08'1 1.5
2015-May-26 21:33N 39°38' W 074°10'4 4.1
2015-May-26 20:33N 39°40' W 074°05'2 1.9
2015-May-26 19:33N 39°41' W 074°03'6 6.0
2015-May-26 18:33N 39°38' W 074°10'3 3.3
2015-May-26 17:33N 39°39' W 074°06'3 2.6
2015-May-26 16:33N 39°41' W 074°03'6 5.6
2015-May-26 15:30N 39°38' W 074°10'1 1.0
2015-May-26 14:33N 39°38' W 074°09'4 4.1
2015-May-26 13:33N 39°40' W 074°04'5 5.0
2015-May-26 12:33N 39°38' W 074°10'0 0.1
2015-May-26 11:33N 39°38' W 074°10'5 4.6
2015-May-26 10:33N 39°40' W 074°05'1 1.3
2015-May-26 09:30N 39°41' W 074°03'6 6.2
2015-May-26 08:33N 39°38' W 074°10'0 0.2
2015-May-26 07:33N 39°38' W 074°10'6 5.6
2015-May-26 06:33N 39°41' W 074°04'4 4.4
2015-May-26 05:33N 39°38' W 074°09'1 1.4
2015-May-26 04:33N 39°38' W 074°10'6 5.6
2015-May-26 03:33N 39°41' W 074°04'3 2.7
2015-May-26 02:33N 39°39' W 074°07'3 2.9
2015-May-26 01:33N 39°38' W 074°10'3 2.7
2015-May-26 00:33N 39°39' W 074°07'3 2.7
2015-May-25 23:33N 39°40' W 074°04'5 4.9
2015-May-25 22:33N 39°38' W 074°10'0 0.5
2015-May-25 21:33N 39°38' W 074°10'5 5.3
2015-May-25 20:33N 39°40' W 074°04'1 0.6
2015-May-25 19:33N 39°41' W 074°04'6 5.7
2015-May-25 18:31N 39°38' W 074°10'4 3.8
2015-May-25 17:32N 39°40' W 074°06'2 2.4
2015-May-25 16:33N 39°41' W 074°03'6 6.0
2015-May-25 15:33N 39°38' W 074°10'0 0.0
2015-May-25 14:33N 39°38' W 074°10'5 5.3
2015-May-25 13:32N 39°40' W 074°04'1 0.9
2015-May-25 12:32N 39°41' W 074°03'6 6.3
2015-May-25 11:33N 39°38' W 074°10'0 0.0
2015-May-25 10:32N 39°38' W 074°10'6 5.6
2015-May-25 09:33N 39°41' W 074°04'1 1.4
2015-May-25 08:33N 39°40' W 074°06'4 4.1
2015-May-25 07:33N 39°38' W 074°10'5 4.7
2015-May-25 06:32N 39°40' W 074°05'1 1.4
2015-May-25 05:33N 39°41' W 074°03'6 6.0
2015-May-25 04:33N 39°38' W 074°10'1 1.5
2015-May-25 03:33N 39°39' W 074°08'4 4.2
2015-May-25 02:33N 39°41' W 074°04'4 3.8
2015-May-25 01:33N 39°39' W 074°08'2 1.9
2015-May-25 00:33N 39°38' W 074°10'3 2.6
2015-May-24 23:33N 39°39' W 074°07'3 3.2
2015-May-24 22:33N 39°41' W 074°04'5 5.0
2015-May-24 21:33N 39°38' W 074°09'1 0.8
2015-May-24 20:33N 39°38' W 074°10'6 5.5
2015-May-24 19:33N 39°41' W 074°04'2 2.2
2015-May-24 18:33N 39°40' W 074°06'3 3.4
2015-May-24 17:33N 39°38' W 074°10'2 1.8
2015-May-24 16:33N 39°39' W 074°08'4 4.0
2015-May-24 15:33N 39°41' W 074°04'4 4.4
2015-May-24 14:33N 39°39' W 074°09'1 1.4
2015-May-24 13:33N 39°38' W 074°10'0 0.0
2015-May-24 12:33N 39°38' W 074°10'5 5.2
2015-May-24 11:33N 39°40' W 074°04'1 1.0
2015-May-24 10:33N 39°41' W 074°03'6 6.1
2015-May-24 09:33N 39°38' W 074°10'0 0.4
2015-May-24 08:33N 39°38' W 074°10'5 5.2
2015-May-24 07:33N 39°41' W 074°04'3 3.0
2015-May-24 06:33N 39°39' W 074°07'3 2.6
2015-May-24 05:33N 39°38' W 074°10'4 4.0
2015-May-24 04:33N 39°40' W 074°05'2 2.0
2015-May-24 03:30N 39°41' W 074°03'1 1.4
2015-May-24 02:32N 39°41' W 074°05'0 0.0
2015-May-24 01:20N 39°41' W 074°05'0 0.0
2015-May-24 00:32N 39°41' W 074°05'0 0.1
2015-May-23 23:08N 39°41' W 074°05'0 0.1
2015-May-23 22:26N 39°40' W 074°05'0 0.1
2015-May-23 21:32N 39°40' W 074°05'0 0.0
2015-May-23 20:26N 39°40' W 074°05'0 0.0
2015-May-23 19:32N 39°40' W 074°05'0 0.0
2015-May-23 18:32N 39°40' W 074°05'0 0.0
2015-May-23 16:26N 39°40' W 074°05'0 0.0
2015-May-23 15:32N 39°40' W 074°05'0 0.0
2015-May-23 14:32N 39°40' W 074°05'0 0.0
2015-May-23 13:32N 39°40' W 074°05'0 0.0
2015-May-23 12:20N 39°40' W 074°05'0 0.0
2015-May-23 11:14N 39°40' W 074°05'0 0.0
2015-May-23 10:32N 39°40' W 074°05'0 0.0
2015-May-23 09:26N 39°40' W 074°05'0 0.0
2015-May-23 08:32N 39°40' W 074°05'0 0.0
2015-May-23 07:32N 39°40' W 074°05'0 0.0
2015-May-23 06:32N 39°40' W 074°05'0 0.0
2015-May-23 05:32N 39°40' W 074°05'0 0.0
2015-May-23 04:32N 39°40' W 074°05'0 0.1
2015-May-23 03:20N 39°41' W 074°05'0 0.0
2015-May-23 02:32N 39°41' W 074°05'0 0.0
2015-May-23 01:32N 39°41' W 074°05'0 0.0
2015-May-23 00:26N 39°41' W 074°05'0 0.0
2015-May-22 23:32N 39°41' W 074°05'0 0.0
2015-May-22 22:32N 39°41' W 074°05'0 0.0
2015-May-22 21:32N 39°40' W 074°05'0 0.0
2015-May-22 20:26N 39°40' W 074°05'0 0.0
2015-May-22 19:26N 39°40' W 074°05'0 0.0
2015-May-22 18:32N 39°40' W 074°05'0 0.0
2015-May-22 17:32N 39°40' W 074°05'0 0.0
2015-May-22 16:14N 39°40' W 074°05'0 0.0
2015-May-22 15:32N 39°40' W 074°05'0 0.0
2015-May-22 14:32N 39°40' W 074°05'0 0.0
2015-May-22 13:26N 39°40' W 074°05'0 0.0
2015-May-22 12:26N 39°40' W 074°05'0 0.0
2015-May-22 11:32N 39°40' W 074°05'0 0.0
2015-May-22 10:32N 39°40' W 074°05'0 0.0
2015-May-22 09:32N 39°40' W 074°05'0 0.0
2015-May-22 08:26N 39°40' W 074°05'0 0.0
2015-May-22 07:32N 39°40' W 074°05'0 0.0
2015-May-22 06:32N 39°40' W 074°05'0 0.0
2015-May-22 05:32N 39°40' W 074°05'0 0.0
2015-May-22 04:26N 39°40' W 074°05'0 0.0
2015-May-22 03:26N 39°40' W 074°05'0 0.0
2015-May-22 01:32N 39°40' W 074°05'0 0.0
2015-May-22 00:32N 39°40' W 074°05'0 0.4
2015-May-21 23:33N 39°40' W 074°06'0 0.1
2015-May-21 22:32N 39°40' W 074°06'0 0.0
2015-May-21 21:32N 39°40' W 074°06'0 0.0
2015-May-21 20:20N 39°40' W 074°06'0 0.0
2015-May-21 19:32N 39°40' W 074°06'0 0.0
2015-May-21 18:32N 39°40' W 074°06'0 0.0
2015-May-21 17:32N 39°40' W 074°06'0 0.0
2015-May-21 16:32N 39°40' W 074°06'0 0.0
2015-May-21 15:32N 39°40' W 074°06'0 0.0
2015-May-21 14:20N 39°40' W 074°06'0 0.0
2015-May-21 13:26N 39°40' W 074°06'0 0.0
2015-May-21 12:32N 39°40' W 074°06'0 0.0
2015-May-21 11:20N 39°40' W 074°06'0 0.0
2015-May-21 10:32N 39°40' W 074°06'0 0.0
2015-May-21 09:14N 39°40' W 074°06'0 0.0
2015-May-21 08:26N 39°40' W 074°06'0 0.0
2015-May-21 07:32N 39°40' W 074°06'0 0.0
2015-May-21 06:32N 39°40' W 074°06'0 0.0
2015-May-21 05:20N 39°40' W 074°06'0 0.0
2015-May-21 04:32N 39°40' W 074°06'0 0.0
2015-May-21 03:32N 39°40' W 074°06'0 0.0
2015-May-21 02:26N 39°40' W 074°06'0 0.0
2015-May-21 01:32N 39°40' W 074°06'0 0.0
2015-May-21 00:32N 39°40' W 074°06'0 0.0
2015-May-20 23:32N 39°40' W 074°06'0 0.0
2015-May-20 22:32N 39°40' W 074°06'0 0.0
2015-May-20 21:26N 39°40' W 074°06'0 0.0
2015-May-20 20:08N 39°40' W 074°06'0 0.0
2015-May-20 19:32N 39°40' W 074°06'0 0.0
2015-May-20 18:32N 39°40' W 074°06'0 0.0
2015-May-20 17:32N 39°40' W 074°06'0 0.0
2015-May-20 16:20N 39°40' W 074°06'0 0.0
2015-May-20 15:26N 39°40' W 074°05'0 0.0
2015-May-20 14:32N 39°40' W 074°06'0 0.0
2015-May-20 13:32N 39°40' W 074°06'0 0.0
2015-May-20 12:32N 39°40' W 074°06'0 0.0
2015-May-20 11:26N 39°40' W 074°06'0 0.0
2015-May-20 09:32N 39°40' W 074°06'0 0.0
2015-May-20 08:26N 39°40' W 074°06'0 0.0
2015-May-20 07:32N 39°40' W 074°06'0 0.0
2015-May-20 06:32N 39°40' W 074°06'0 0.0
2015-May-20 05:32N 39°40' W 074°06'0 0.0
2015-May-20 04:32N 39°40' W 074°05'0 0.0
2015-May-20 03:32N 39°40' W 074°06'0 0.1
2015-May-20 02:32N 39°40' W 074°06'0 0.0
2015-May-20 01:32N 39°40' W 074°06'0 0.0
2015-May-20 00:32N 39°40' W 074°06'0 0.0
2015-May-19 23:32N 39°40' W 074°06'0 0.0
2015-May-19 22:32N 39°40' W 074°06'  
Track history (hours):
 
Tides and Currents Weather Stations Pressure Air Temp Water Temp Dewpoint Dewpoint Depression Visibility Wind Speed Wind Dir Waves Ship Positions

Padre Island

Owner: Great Lakes Dredge & Dock Company, Oak Brook, IL. More information available from US FCC via Universal Licensing System and Coast Guard Vessel Documentation Center.

Last reported at 2015-May-29 21:33 UTC. Time now 2015-May-29 22:30 UTC.
Position N 39°38' W 074°10'.

Length 86 m; draft 19.6 m.

Type: Dredging. MMSI: 367525000.

Date/timePositionNaut miles runAvg speedWind from/ knotsBaromVisibWave heightAir tempDewpointWater temp
2015-May-29 21:33N 39°38' W 074°10'2 2.5
2015-May-29 20:33N 39°39' W 074°07'3 3.1
2015-May-29 19:33N 39°40' W 074°04'6 5.4
2015-May-29 18:32N 39°38' W 074°10'2 2.4
2015-May-29 17:33N 39°39' W 074°08'4 3.9
2015-May-29 16:33N 39°41' W 074°03'6 6.2
2015-May-29 15:33N 39°38' W 074°10'0 0.0
2015-May-29 14:33N 39°38' W 074°10'6 5.9
2015-May-29 13:33N 39°41' W 074°03'1 0.5
2015-May-29 12:33N 39°41' W 074°03'6 6.4
2015-May-29 11:33N 39°38' W 074°10'0 0.0
2015-May-29 10:33N 39°38' W 074°10'0 0.2
2015-May-29 09:33N 39°38' W 074°10'5 5.2
2015-May-29 08:33N 39°40' W 074°04'3 2.8
2015-May-29 07:33N 39°39' W 074°08'2 2.4
2015-May-29 06:32N 39°38' W 074°10'1 0.6
2015-May-29 05:33N 39°38' W 074°10'5 5.1
2015-May-29 04:33N 39°41' W 074°04'5 4.9
2015-May-29 03:33N 39°38' W 074°10'1 0.7
2015-May-29 02:32N 39°38' W 074°10'6 5.7
2015-May-29 01:32N 39°41' W 074°04'1 0.6
2015-May-29 00:33N 39°40' W 074°04'5 5.1
2015-May-28 23:33N 39°38' W 074°10'0 0.0
2015-May-28 22:33N 39°38' W 074°10'6 5.7
2015-May-28 21:33N 39°41' W 074°04'3 3.3
2015-May-28 20:33N 39°39' W 074°08'2 2.4
2015-May-28 19:33N 39°38' W 074°10'5 5.5
2015-May-28 18:33N 39°40' W 074°04'2 1.6
2015-May-28 17:33N 39°40' W 074°06'4 3.9
2015-May-28 16:33N 39°38' W 074°10'6 5.7
2015-May-28 15:33N 39°40' W 074°04'1 0.6
2015-May-28 14:33N 39°41' W 074°03'6 6.1
2015-May-28 13:32N 39°38' W 074°10'0 0.0
2015-May-28 12:33N 39°38' W 074°10'2 1.5
2015-May-28 11:33N 39°38' W 074°08'4 4.3
2015-May-28 10:33N 39°40' W 074°04'0 0.4
2015-May-28 09:33N 39°41' W 074°04'6 5.6
2015-May-28 08:33N 39°38' W 074°10'4 3.6
2015-May-28 07:33N 39°39' W 074°06'2 2.5
2015-May-28 06:33N 39°41' W 074°03'6 6.0
2015-May-28 05:33N 39°38' W 074°10'2 1.7
2015-May-28 04:33N 39°39' W 074°08'4 4.0
2015-May-28 03:33N 39°40' W 074°04'6 5.6
2015-May-28 02:33N 39°38' W 074°10'0 0.0
2015-May-28 01:32N 39°38' W 074°10'6 6.2
2015-May-28 00:33N 39°41' W 074°03'1 1.0
2015-May-27 23:33N 39°40' W 074°04'5 5.4
2015-May-27 22:33N 39°38' W 074°10'2 2.0
2015-May-27 21:33N 39°39' W 074°08'4 3.7
2015-May-27 20:33N 39°41' W 074°04'0 0.2
2015-May-27 19:33N 39°41' W 074°04'0 0.2
2015-May-27 18:33N 39°41' W 074°04'0 0.3
2015-May-27 17:33N 39°41' W 074°03'1 0.9
2015-May-27 16:33N 39°40' W 074°04'2 1.5
2015-May-27 15:33N 39°40' W 074°06'4 3.9
2015-May-27 14:33N 39°38' W 074°10'3 3.0
2015-May-27 13:33N 39°39' W 074°07'2 1.7
2015-May-27 12:33N 39°40' W 074°05'5 4.7
2015-May-27 11:33N 39°38' W 074°10'0 0.0
2015-May-27 10:33N 39°38' W 074°10'5 5.4
2015-May-27 09:33N 39°40' W 074°04'1 1.2
2015-May-27 08:33N 39°40' W 074°05'4 4.2
2015-May-27 07:33N 39°38' W 074°10'3 2.6
2015-May-27 06:33N 39°39' W 074°07'3 3.3
2015-May-27 05:33N 39°41' W 074°03'6 5.9
2015-May-27 04:33N 39°38' W 074°10'1 0.7
2015-May-27 03:33N 39°38' W 074°09'4 4.1
2015-May-27 02:33N 39°40' W 074°05'5 4.8
2015-May-27 01:33N 39°38' W 074°10'0 0.0
2015-May-27 00:33N 39°38' W 074°10'5 5.2
2015-May-26 23:33N 39°40' W 074°04'4 3.8
2015-May-26 22:33N 39°38' W 074°08'1 1.5
2015-May-26 21:33N 39°38' W 074°10'4 4.1
2015-May-26 20:33N 39°40' W 074°05'2 1.9
2015-May-26 19:33N 39°41' W 074°03'6 6.0
2015-May-26 18:33N 39°38' W 074°10'3 3.3
2015-May-26 17:33N 39°39' W 074°06'3 2.6
2015-May-26 16:33N 39°41' W 074°03'6 5.6
2015-May-26 15:30N 39°38' W 074°10'1 1.0
2015-May-26 14:33N 39°38' W 074°09'4 4.1
2015-May-26 13:33N 39°40' W 074°04'5 5.0
2015-May-26 12:33N 39°38' W 074°10'0 0.1
2015-May-26 11:33N 39°38' W 074°10'5 4.6
2015-May-26 10:33N 39°40' W 074°05'1 1.3
2015-May-26 09:30N 39°41' W 074°03'6 6.2
2015-May-26 08:33N 39°38' W 074°10'0 0.2
2015-May-26 07:33N 39°38' W 074°10'6 5.6
2015-May-26 06:33N 39°41' W 074°04'4 4.4
2015-May-26 05:33N 39°38' W 074°09'1 1.4
2015-May-26 04:33N 39°38' W 074°10'6 5.6
2015-May-26 03:33N 39°41' W 074°04'3 2.7
2015-May-26 02:33N 39°39' W 074°07'3 2.9
2015-May-26 01:33N 39°38' W 074°10'3 2.7
2015-May-26 00:33N 39°39' W 074°07'3 2.7
2015-May-25 23:33N 39°40' W 074°04'5 4.9
2015-May-25 22:33N 39°38' W 074°10'0 0.5
2015-May-25 21:33N 39°38' W 074°10'5 5.3
2015-May-25 20:33N 39°40' W 074°04'1 0.6
2015-May-25 19:33N 39°41' W 074°04'6 5.7
2015-May-25 18:31N 39°38' W 074°10'4 3.8
2015-May-25 17:32N 39°40' W 074°06'2 2.4
2015-May-25 16:33N 39°41' W 074°03'6 6.0
2015-May-25 15:33N 39°38' W 074°10'0 0.0
2015-May-25 14:33N 39°38' W 074°10'5 5.3
2015-May-25 13:32N 39°40' W 074°04'1 0.9
2015-May-25 12:32N 39°41' W 074°03'6 6.3
2015-May-25 11:33N 39°38' W 074°10'0 0.0
2015-May-25 10:32N 39°38' W 074°10'6 5.6
2015-May-25 09:33N 39°41' W 074°04'1 1.4
2015-May-25 08:33N 39°40' W 074°06'4 4.1
2015-May-25 07:33N 39°38' W 074°10'5 4.7
2015-May-25 06:32N 39°40' W 074°05'1 1.4
2015-May-25 05:33N 39°41' W 074°03'6 6.0
2015-May-25 04:33N 39°38' W 074°10'1 1.5
2015-May-25 03:33N 39°39' W 074°08'4 4.2
2015-May-25 02:33N 39°41' W 074°04'4 3.8
2015-May-25 01:33N 39°39' W 074°08'2 1.9
2015-May-25 00:33N 39°38' W 074°10'3 2.6
2015-May-24 23:33N 39°39' W 074°07'3 3.2
2015-May-24 22:33N 39°41' W 074°04'5 5.0
2015-May-24 21:33N 39°38' W 074°09'1 0.8
2015-May-24 20:33N 39°38' W 074°10'6 5.5
2015-May-24 19:33N 39°41' W 074°04'2 2.2
2015-May-24 18:33N 39°40' W 074°06'3 3.4
2015-May-24 17:33N 39°38' W 074°10'2 1.8
2015-May-24 16:33N 39°39' W 074°08'4 4.0
2015-May-24 15:33N 39°41' W 074°04'4 4.4
2015-May-24 14:33N 39°39' W 074°09'1 1.4
2015-May-24 13:33N 39°38' W 074°10'0 0.0
2015-May-24 12:33N 39°38' W 074°10'5 5.2
2015-May-24 11:33N 39°40' W 074°04'1 1.0
2015-May-24 10:33N 39°41' W 074°03'6 6.1
2015-May-24 09:33N 39°38' W 074°10'0 0.4
2015-May-24 08:33N 39°38' W 074°10'5 5.2
2015-May-24 07:33N 39°41' W 074°04'3 3.0
2015-May-24 06:33N 39°39' W 074°07'3 2.6
2015-May-24 05:33N 39°38' W 074°10'4 4.0
2015-May-24 04:33N 39°40' W 074°05'2 2.0
2015-May-24 03:30N 39°41' W 074°03'1 1.4
2015-May-24 02:32N 39°41' W 074°05'0 0.0
2015-May-24 01:20N 39°41' W 074°05'0 0.0
2015-May-24 00:32N 39°41' W 074°05'0 0.1
2015-May-23 23:08N 39°41' W 074°05'0 0.1
2015-May-23 22:26N 39°40' W 074°05'0 0.1
2015-May-23 21:32N 39°40' W 074°05'0 0.0
2015-May-23 20:26N 39°40' W 074°05'0 0.0
2015-May-23 19:32N 39°40' W 074°05'0 0.0
2015-May-23 18:32N 39°40' W 074°05'0 0.0
2015-May-23 16:26N 39°40' W 074°05'0 0.0
2015-May-23 15:32N 39°40' W 074°05'0 0.0
2015-May-23 14:32N 39°40' W 074°05'0 0.0
2015-May-23 13:32N 39°40' W 074°05'0 0.0
2015-May-23 12:20N 39°40' W 074°05'0 0.0
2015-May-23 11:14N 39°40' W 074°05'0 0.0
2015-May-23 10:32N 39°40' W 074°05'0 0.0
2015-May-23 09:26N 39°40' W 074°05'0 0.0
2015-May-23 08:32N 39°40' W 074°05'0 0.0
2015-May-23 07:32N 39°40' W 074°05'0 0.0
2015-May-23 06:32N 39°40' W 074°05'0 0.0
2015-May-23 05:32N 39°40' W 074°05'0 0.0
2015-May-23 04:32N 39°40' W 074°05'0 0.1
2015-May-23 03:20N 39°41' W 074°05'0 0.0
2015-May-23 02:32N 39°41' W 074°05'0 0.0
2015-May-23 01:32N 39°41' W 074°05'0 0.0
2015-May-23 00:26N 39°41' W 074°05'0 0.0
2015-May-22 23:32N 39°41' W 074°05'0 0.0
2015-May-22 22:32N 39°41' W 074°05'0 0.0
2015-May-22 21:32N 39°40' W 074°05'0 0.0
2015-May-22 20:26N 39°40' W 074°05'0 0.0
2015-May-22 19:26N 39°40' W 074°05'0 0.0
2015-May-22 18:32N 39°40' W 074°05'0 0.0
2015-May-22 17:32N 39°40' W 074°05'0 0.0
2015-May-22 16:14N 39°40' W 074°05'0 0.0
2015-May-22 15:32N 39°40' W 074°05'0 0.0
2015-May-22 14:32N 39°40' W 074°05'0 0.0
2015-May-22 13:26N 39°40' W 074°05'0 0.0
2015-May-22 12:26N 39°40' W 074°05'0 0.0
2015-May-22 11:32N 39°40' W 074°05'0 0.0
2015-May-22 10:32N 39°40' W 074°05'0 0.0
2015-May-22 09:32N 39°40' W 074°05'0 0.0
2015-May-22 08:26N 39°40' W 074°05'0 0.0
2015-May-22 07:32N 39°40' W 074°05'0 0.0
2015-May-22 06:32N 39°40' W 074°05'0 0.0
2015-May-22 05:32N 39°40' W 074°05'0 0.0
2015-May-22 04:26N 39°40' W 074°05'0 0.0
2015-May-22 03:26N 39°40' W 074°05'0 0.0
2015-May-22 01:32N 39°40' W 074°05'0 0.0
2015-May-22 00:32N 39°40' W 074°05'0 0.4
2015-May-21 23:33N 39°40' W 074°06'0 0.1
2015-May-21 22:32N 39°40' W 074°06'0 0.0
2015-May-21 21:32N 39°40' W 074°06'0 0.0
2015-May-21 20:20N 39°40' W 074°06'0 0.0
2015-May-21 19:32N 39°40' W 074°06'0 0.0
2015-May-21 18:32N 39°40' W 074°06'0 0.0
2015-May-21 17:32N 39°40' W 074°06'0 0.0
2015-May-21 16:32N 39°40' W 074°06'0 0.0
2015-May-21 15:32N 39°40' W 074°06'0 0.0
2015-May-21 14:20N 39°40' W 074°06'0 0.0
2015-May-21 13:26N 39°40' W 074°06'0 0.0
2015-May-21 12:32N 39°40' W 074°06'0 0.0
2015-May-21 11:20N 39°40' W 074°06'0 0.0
2015-May-21 10:32N 39°40' W 074°06'0 0.0
2015-May-21 09:14N 39°40' W 074°06'0 0.0
2015-May-21 08:26N 39°40' W 074°06'0 0.0
2015-May-21 07:32N 39°40' W 074°06'0 0.0
2015-May-21 06:32N 39°40' W 074°06'0 0.0
2015-May-21 05:20N 39°40' W 074°06'0 0.0
2015-May-21 04:32N 39°40' W 074°06'0 0.0
2015-May-21 03:32N 39°40' W 074°06'0 0.0
2015-May-21 02:26N 39°40' W 074°06'0 0.0
2015-May-21 01:32N 39°40' W 074°06'0 0.0
2015-May-21 00:32N 39°40' W 074°06'0 0.0
2015-May-20 23:32N 39°40' W 074°06'0 0.0
2015-May-20 22:32N 39°40' W 074°06'0 0.0
2015-May-20 21:26N 39°40' W 074°06'0 0.0
2015-May-20 20:08N 39°40' W 074°06'0 0.0
2015-May-20 19:32N 39°40' W 074°06'0 0.0
2015-May-20 18:32N 39°40' W 074°06'0 0.0
2015-May-20 17:32N 39°40' W 074°06'0 0.0
2015-May-20 16:20N 39°40' W 074°06'0 0.0
2015-May-20 15:26N 39°40' W 074°05'0 0.0
2015-May-20 14:32N 39°40' W 074°06'0 0.0
2015-May-20 13:32N 39°40' W 074°06'0 0.0
2015-May-20 12:32N 39°40' W 074°06'0 0.0
2015-May-20 11:26N 39°40' W 074°06'0 0.0
2015-May-20 09:32N 39°40' W 074°06'0 0.0
2015-May-20 08:26N 39°40' W 074°06'0 0.0
2015-May-20 07:32N 39°40' W 074°06'0 0.0
2015-May-20 06:32N 39°40' W 074°06'0 0.0
2015-May-20 05:32N 39°40' W 074°06'0 0.0
2015-May-20 04:32N 39°40' W 074°05'0 0.0
2015-May-20 03:32N 39°40' W 074°06'0 0.1
2015-May-20 02:32N 39°40' W 074°06'0 0.0
2015-May-20 01:32N 39°40' W 074°06'0 0.0
2015-May-20 00:32N 39°40' W 074°06'0 0.0
2015-May-19 23:32N 39°40' W 074°06'0 0.0
2015-May-19 22:32N 39°40' W 074°06'  

Dump ship's entire track history